Tiempo atmosférico en la estación meteorológica de Burgo de Osma, Soria (932 m.)



Fecha
DESCASC
Temp. máxima en grados centígrados (hora)
DESCASC
Temp. mínima en grados centígrados (hora)
DESCASC
Temp. media en grados centígrados
DESCASC
Racha de viento máxima en m/sg (hora)
DESCASC
Velocidad máxima media en intervalos de 10 minutos(hora)
DESCASC
Precipitaciones diarias en mm
DESCASC
Precipitaciones de 00:00 a 06:00 en mm
DESCASC
Precipitaciones de 06:00 a 12:00 en mm
DESCASC
Precipitaciones de 12:00 a 18:00 en mm
DESCASC
Precipitaciones de 18:00 a 24:00 en mm
DESCASC
20-09-2018 30.6 (16:20) 10.9 (06:50) 20.8 13.61 (19:00) 9.44 (19:00) 0 0 0 0 0
19-09-2018 30.9 (18:10) 9.7 (08:20) 20.3 7.22 (14:40) 2.78 (15:20) 0 0 0 0 0
18-09-2018 29.1 (17:40) 13.5 (05:20) 21.3 8.06 (19:00) 5.83 (19:10) 1 0 0 0 1
17-09-2018 30.3 (17:20) 12.9 (08:00) 21.6 12.5 (20:40) 8.89 (21:00) 2.8 0 0 2.8 0
16-09-2018 30.5 (15:50) 11.5 (00:00) 21 7.5 (16:40) 4.72 (18:10) 0 0 0 0 0
15-09-2018 30.3 (16:50) 12.5 (00:00) 21.4 8.89 (14:30) 5.28 (11:00) 0 0 0 0 0
14-09-2018 30.4 (15:40) 8.5 (00:00) 19.4 7.78 (19:10) 5.28 (17:20) 0 0 0 0 0
13-09-2018 28.7 (17:20) 11.1 (00:00) 19.9 11.67 (15:50) 5.28 (18:00) 0 0 0 0 0
12-09-2018 28.6 (18:10) 12.3 (00:00) 20.5 9.72 (15:40) 6.67 (18:40) 0 0 0 0 0
11-09-2018 27 (16:00) 9.9 (00:00) 18.4 11.67 (16:30) 8.61 (16:40) 0 0 0 0 0
10-09-2018 27.8 (16:40) 9.4 (00:00) 18.6 9.17 (18:20) 6.67 (18:20) 0 0 0 0 0
09-09-2018 27.2 (17:20) 10.8 (00:00) 19 13.61 (03:10) 8.33 (03:30) 0.6 0.6 0 0 0
08-09-2018 25.4 (14:40) 11.7 (00:00) 18.5 11.67 (17:20) 7.78 (17:20) 6.2 1.4 0 1.8 3
07-09-2018 27.5 (18:40) 7.4 (00:00) 17.5 11.67 (21:10) 7.78 (21:10) 0 0 0 0 0
06-09-2018 22.7 (15:10) 10.6 (00:00) 16.7 8.89 (15:30) 5.83 (15:30) 3 0.2 0 2.8 0
05-09-2018 25.5 (14:20) 13.8 (00:00) 19.7 10.83 (16:30) 7.78 (16:40) 0.2 0 0 0 0.2
04-09-2018 30.5 (16:30) 14.6 (00:00) 22.6 12.5 (18:10) 9.44 (18:10) 0 0 0 0 0
03-09-2018 32.3 (17:00) 16.7 (00:00) 24.5 12.5 (07:40) 8.61 (20:50) 0 0 0 0 0
02-09-2018 33 (16:50) 10.8 (00:00) 21.9 11.67 (17:10) 7.22 (17:20) 0 0 0 0 0
01-09-2018 32.7 (18:20) 9.9 (00:00) 21.3 5.83 (12:20) 3.89 (11:40) 0 0 0 0 0
31-08-2018 29.9 (16:50) 11.1 (00:00) 20.5 10.56 (22:00) 7.22 (22:00) 0 0 0 0 0
30-08-2018 29.7 (16:00) 12 (00:00) 20.9 9.17 (17:10) 5.83 (16:30) 0 0 0 0 0
29-08-2018 31.1 (16:50) 10.5 (00:00) 20.8 10 (19:20) 7.22 (19:30) 0 0 0 0 0
28-08-2018 32.9 (16:10) 16.3 (00:00) 24.6 15.83 (16:40) 9.72 (16:40) 0 0 0 0 0
27-08-2018 34.3 (16:20) 9.8 (00:00) 22 7.5 (18:30) 4.44 (19:10) 0 0 0 0 0
26-08-2018 29.4 (17:30) 7.6 (00:00) 18.5 8.89 (16:00) 5.83 (18:10) 0 0 0 0 0
25-08-2018 26.6 (16:40) 8.1 (00:00) 17.4 9.72 (17:10) 5.83 (15:20) 0 0 0 0 0
24-08-2018 27.5 (15:50) 10.2 (00:00) 18.8 10.56 (16:30) 7.22 (17:50) 0 0 0 0 0

Gráficas

Temp. máximas Temp. mínimas Temp. medias Precipitaciones Rachas de viento máximas Velocidades máximas media en intervalos de 10 minutos

Datos horarios

Fecha y hora oficial Temperatura (ºC) Velocidad del viento (km/h) Dirección del viento Racha (km/h) Dirección de racha Precipitación (mm) Presión (hPa) Tendencia (hPa) Humedad (%)
2018-09-22 23:00:00 16.8 2 Sudeste 10 Nordeste 0 -- -- 50
2018-09-22 22:00:00 17.5 5 Este 8 Este 0 -- -- 52
2018-09-22 21:00:00 22.2 3 Sudoeste 13 Noroeste 0 -- -- 35
2018-09-22 20:00:00 25 8 Noroeste 17 Noroeste 0 -- -- 29
2018-09-22 19:00:00 28.9 12 Noroeste 23 Oeste 0 -- -- 23
2018-09-22 18:00:00 29.5 14 Oeste 27 Noroeste 0 -- -- 21
2018-09-22 17:00:00 29.4 17 Noroeste 27 Oeste 0 -- -- 23
2018-09-22 16:00:00 28.9 15 Noroeste 30 Oeste 0 -- -- 26
2018-09-22 15:00:00 28.9 12 Noroeste 30 Oeste 0 -- -- 27
2018-09-22 14:00:00 27.6 16 Oeste 26 Oeste 0 -- -- 30
2018-09-22 13:00:00 26.3 12 Oeste 18 Oeste 0 -- -- 29
2018-09-22 12:00:00 24 6 Sur 11 Sur 0 -- -- 44
2018-09-22 11:00:00 20.9 4 Sudeste 9 Nordeste 0 -- -- 53
2018-09-22 10:00:00 15.7 4 Este 6 Este 0 -- -- 68
2018-09-22 09:00:00 11.3 0 Calma 3 Sudeste 0 -- -- 84
2018-09-22 08:00:00 9 0 Calma 6 Nordeste 0 -- -- 90
2018-09-22 07:00:00 8.9 5 Este 9 Este 0 -- -- 88
2018-09-22 06:00:00 8.9 4 Este 8 Este 0 -- -- 87
2018-09-22 05:00:00 10.2 3 Nordeste 7 Nordeste 0 -- -- 85
2018-09-22 04:00:00 10.2 3 Este 7 Este 0 -- -- 83
2018-09-22 03:00:00 11.5 0 Calma 5 Este 0 -- -- 76
2018-09-22 02:00:00 12.1 2 Este 5 Este 0 -- -- 73
2018-09-22 01:00:00 13.3 3 Sudeste 5 Sudeste 0 -- -- 70
2018-09-22 00:00:00 14.7 0 Calma 9 Este 0 -- -- 65
2018-09-21 23:00:00 15.6 2 Norte 9 Este 0 -- -- 60
2018-09-21 22:00:00 17 4 Sudeste 10 Este 0 -- -- 57
2018-09-21 21:00:00 21.1 5 Noroeste 9 Noroeste 0 -- -- 41
2018-09-21 20:00:00 23.3 7 Noroeste 23 Noroeste 0 -- -- 37
2018-09-21 19:00:00 26.2 14 Noroeste 34 Oeste 0 -- -- 33
2018-09-21 18:00:00 26.1 21 Noroeste 31 Oeste 0 -- -- 33
2018-09-21 17:00:00 27.1 18 Noroeste 27 Noroeste 0 -- -- 31
2018-09-21 16:00:00 27 15 Noroeste 28 Oeste 0 -- -- 30
2018-09-21 15:00:00 26.3 15 Noroeste 27 Oeste 0 -- -- 30
2018-09-21 14:00:00 25.9 17 Noroeste 26 Noroeste 0 -- -- 33
2018-09-21 13:00:00 24.5 12 Noroeste 20 Noroeste 0 -- -- 34
2018-09-21 12:00:00 22.9 8 Oeste 17 Oeste 0 -- -- 39
2018-09-21 11:00:00 20.5 14 Oeste 19 Oeste 0 -- -- 45
2018-09-21 10:00:00 16.1 3 Este 5 Este 0 -- -- 67
2018-09-21 09:00:00 11.2 3 Sudeste 5 Este 0 -- -- 83
2018-09-21 08:00:00 9.4 0 Calma 5 Este 0 -- -- 88
2018-09-21 07:00:00 9.8 0 Calma 5 Nordeste 0 -- -- 87
2018-09-21 06:00:00 10 4 Este 6 Este 0 -- -- 87
2018-09-21 05:00:00 10.6 4 Este 6 Nordeste 0 -- -- 85
2018-09-21 04:00:00 11.4 3 Este 5 Este 0 -- -- 83
2018-09-21 03:00:00 12.6 2 Sudeste 4 Sudeste 0 -- -- 81
2018-09-21 02:00:00 13.2 2 Este 5 Sudeste 0 -- -- 81
2018-09-21 01:00:00 13.9 2 Este 8 Sudeste 0 -- -- 74
2018-09-21 00:00:00 15.2 4 Este 7 Nordeste 0 -- -- 70
2018-09-20 23:00:00 16.4 3 Sudeste 5 Sur 0 -- -- 69
2018-09-20 22:00:00 19.6 8 Oeste 15 Oeste 0 -- -- 56
2018-09-20 21:00:00 19.9 9 Oeste 15 Oeste 0 -- -- 56
2018-09-20 20:00:00 22.2 11 Oeste 46 Sudoeste 0 -- -- 49
2018-09-20 19:00:00 21.7 34 Sudoeste 49 Sudoeste 0 -- -- 56
2018-09-20 18:00:00 27.2 15 Sur 23 Sur 0 -- -- 35
2018-09-20 17:00:00 28.8 15 Sur 31 Oeste 0 -- -- 32
2018-09-20 16:00:00 29.9 13 Noroeste 28 Oeste 0 -- -- 29
2018-09-20 15:00:00 29.6 13 Oeste 27 Oeste 0 -- -- 30
2018-09-20 14:00:00 28.5 15 Noroeste 27 Oeste 0 -- -- 30
2018-09-20 13:00:00 28.1 7 Oeste 16 Sudeste 0 -- -- 32
2018-09-20 12:00:00 26.1 6 Este 14 Este 0 -- -- 41
2018-09-20 11:00:00 22.6 5 Sudeste 11 Este 0 -- -- 52
2018-09-20 10:00:00 18.5 3 Este 5 Este 0 -- -- 64
2018-09-20 09:00:00 13.4 2 Este 6 Este 0 -- -- 84
2018-09-20 08:00:00 10.9 2 Este 9 Este 0 -- -- 89
2018-09-20 07:00:00 11.1 5 Este 6 Este 0 -- -- 89
2018-09-20 06:00:00 11.8 0 Calma 6 Sudeste 0 -- -- 88
2018-09-20 05:00:00 12.6 2 Nordeste 5 Este 0 -- -- 84
2018-09-20 04:00:00 12.9 2 Este 6 Este 0 -- -- 82
2018-09-20 03:00:00 13.7 3 Este 5 Este 0 -- -- 80
2018-09-20 02:00:00 14.9 2 Este 6 Este 0 -- -- 75
2018-09-20 01:00:00 15.7 4 Este 6 Este 0 -- -- 71
2018-09-20 00:00:00 16.6 3 Este 6 Sudeste 0 -- -- 65
2018-09-19 23:00:00 17.3 4 Sudeste 9 Este 0 -- -- 64
2018-09-19 22:00:00 19.3 3 Sudeste 7 Oeste 0 -- -- 60
2018-09-19 21:00:00 21.8 8 Oeste 9 Oeste 0 -- -- 48
2018-09-19 20:00:00 25.9 4 Oeste 13 Oeste 0 -- -- 37
2018-09-19 19:00:00 29.7 6 Este 10 Este 0 -- -- 30
2018-09-19 18:00:00 29.8 7 Sudeste 17 Sudeste 0 -- -- 30
2018-09-19 17:00:00 29.5 6 Sudeste 16 Sudoeste 0 -- -- 28
2018-09-19 16:00:00 29.3 5 Oeste 19 Sudeste 0 -- -- 30
2018-09-19 15:00:00 28.8 5 Norte 26 Noroeste 0 -- -- 33
2018-09-19 14:00:00 27.1 7 Sur 16 Sudoeste 0 -- -- 38
2018-09-19 13:00:00 25.9 7 Sudoeste 14 Noroeste 0 -- -- 41
2018-09-19 12:00:00 24.9 3 Este 8 Sudeste 0 -- -- 49
2018-09-19 11:00:00 21.6 2 Este 7 Este 0 -- -- 59
2018-09-19 10:00:00 16.3 3 Este 8 Este 0 -- -- 79
2018-09-19 09:00:00 11.1 3 Sudeste 6 Este 0 -- -- 95
2018-09-19 08:00:00 10.2 5 Este 6 Este 0 -- -- 94
2018-09-19 07:00:00 11.1 0 Calma 8 Este 0 -- -- 94
2018-09-19 06:00:00 11.4 4 Este 6 Este 0 -- -- 94
2018-09-19 05:00:00 11.7 3 Este 6 Este 0 -- -- 94
2018-09-19 04:00:00 12.2 4 Este 8 Este 0 -- -- 92
2018-09-19 03:00:00 12.7 3 Este 8 Este 0 -- -- 92
2018-09-19 02:00:00 14 5 Este 8 Este 0 -- -- 88
2018-09-19 01:00:00 14.5 6 Este 8 Este 0 -- -- 86
2018-09-19 00:00:00 15.6 5 Nordeste 9 Este 0.2 -- -- 83
2018-09-18 23:00:00 17.2 3 Nordeste 6 Nordeste 0 -- -- 81
2018-09-18 22:00:00 17.8 5 Sudoeste 15 Norte 0 -- -- 77
2018-09-18 21:00:00 19 12 Sudeste 25 Este 0.8 -- -- 66
2018-09-18 20:00:00 21.3 10 Sudeste 28 Sudeste 0 -- -- 54
2018-09-18 19:00:00 23.4 17 Este 29 Este 0 -- -- 51
2018-09-18 18:00:00 26.8 17 Este 27 Nordeste 0 -- -- 39
2018-09-18 17:00:00 27.9 14 Noroeste 28 Oeste 0 -- -- 33
2018-09-18 16:00:00 27 19 Oeste 29 Oeste 0 -- -- 37
2018-09-18 15:00:00 26.6 17 Oeste 27 Oeste 0 -- -- 37
2018-09-18 14:00:00 26.1 12 Oeste 22 Oeste 0 -- -- 41
2018-09-18 13:00:00 24.7 10 Sudoeste 19 Sudoeste 0 -- -- 44
2018-09-18 12:00:00 23.7 7 Sudoeste 13 Sudoeste 0 -- -- 50
2018-09-18 11:00:00 22.3 2 Este 14 Este 0 -- -- 57
2018-09-18 10:00:00 18.1 5 Este 10 Este 0 -- -- 73
2018-09-18 09:00:00 14.4 3 Este 11 Este 0 -- -- 88
2018-09-18 08:00:00 14.4 6 Nordeste 10 Nordeste 0 -- -- 87
2018-09-18 07:00:00 14.2 4 Este 11 Este 0 -- -- 88
2018-09-18 06:00:00 13.9 5 Este 10 Este 0 -- -- 89
2018-09-18 05:00:00 13.7 4 Este 8 Este 0 -- -- 89
2018-09-18 04:00:00 14.2 5 Este 11 Nordeste 0 -- -- 88
2018-09-18 03:00:00 15.5 6 Este 15 Nordeste 0 -- -- 80
2018-09-18 02:00:00 17.5 2 Sur 25 Sudeste 0 -- -- 73
2018-09-18 01:00:00 18 16 Sudeste 28 Sudeste 0 -- -- 71
2018-09-18 00:00:00 18.1 18 Sudeste 34 Sudeste 0 -- -- 73
2018-09-17 23:00:00 18.3 15 Este 32 Este 0 -- -- 71
2018-09-17 22:00:00 19 23 Este 44 Sudeste 0 -- -- 67
2018-09-17 21:00:00 20.3 32 Este 45 Sudeste 0 -- -- 62
2018-09-17 20:00:00 23.7 13 Nordeste 23 Este 0 -- -- 45
2018-09-17 19:00:00 25.9 21 Noroeste 31 Noroeste 0 -- -- 39
2018-09-17 18:00:00 28.2 16 Oeste 23 Oeste 0 -- -- 32
2018-09-17 17:00:00 30.2 3 Sudeste 16 Oeste 0 -- -- 30
2018-09-17 16:00:00 24.3 15 Oeste 27 Oeste 0 -- -- 47
2018-09-17 15:00:00 25.4 6 Oeste 20 Oeste 0.4 -- -- 44
2018-09-17 14:00:00 21.9 22 Oeste 42 Sudoeste 2.4 -- -- 52
2018-09-17 13:00:00 28.4 13 Este 21 Este 0 -- -- 38
2018-09-17 12:00:00 26.2 12 Este 21 Este 0 -- -- 44
2018-09-17 11:00:00 23.8 11 Este 19 Este 0 -- -- 50
2018-09-17 10:00:00 20 14 Este 21 Este 0 -- -- 62
2018-09-17 09:00:00 15.5 3 Este 7 Este 0 -- -- 73
2018-09-17 08:00:00 12.9 4 Este 7 Nordeste 0 -- -- 79
2018-09-17 07:00:00 13.3 3 Este 6 Este 0 -- -- 78
2018-09-17 06:00:00 14.5 5 Este 13 Este 0 -- -- 72
2018-09-17 05:00:00 15.1 9 Este 13 Este 0 -- -- 71
2018-09-17 04:00:00 15.4 5 Este 13 Este 0 -- -- 70
2018-09-17 03:00:00 15.1 6 Este 11 Este 0 -- -- 72
2018-09-17 02:00:00 16.6 8 Este 14 Este 0 -- -- 67
2018-09-17 01:00:00 16.4 8 Este 10 Este 0 -- -- 68
2018-09-17 00:00:00 16.3 5 Este 12 Este 0 -- -- 68
2018-09-16 23:00:00 18.2 3 Este 5 Sudeste 0 -- -- 61
2018-09-16 22:00:00 20.6 2 Oeste 11 Nordeste 0 -- -- 51
2018-09-16 21:00:00 23 8 Nordeste 19 Este 0 -- -- 45
2018-09-16 20:00:00 25 11 Este 18 Este 0 -- -- 37
2018-09-16 19:00:00 27.7 9 Noroeste 24 Oeste 0 -- -- 28
2018-09-16 18:00:00 29.7 12 Oeste 26 Oeste 0 -- -- 25
2018-09-16 17:00:00 30.1 6 Norte 27 Norte 0 -- -- 25
2018-09-16 16:00:00 29.6 5 Oeste 15 Oeste 0 -- -- 27
2018-09-16 15:00:00 27.9 9 Noroeste 21 Noroeste 0 -- -- 28
2018-09-16 14:00:00 28.9 10 Sur 21 Sudoeste 0 -- -- 29
2018-09-16 13:00:00 27.4 7 Sudoeste 15 Oeste 0 -- -- 38
2018-09-16 12:00:00 25.5 5 Sudoeste 11 Sudeste 0 -- -- 44
2018-09-16 11:00:00 22.2 4 Sudeste 8 Sudeste 0 -- -- 55
2018-09-16 10:00:00 17.4 4 Este 7 Este 0 -- -- 69
2018-09-16 09:00:00 13.8 4 Este 6 Nordeste 0 -- -- 83
2018-09-16 08:00:00 11.6 5 Este 6 Este 0 -- -- 89
2018-09-16 07:00:00 12.6 3 Nordeste 6 Este 0 -- -- 87
2018-09-16 06:00:00 13.1 3 Este 8 Nordeste 0 -- -- 85
2018-09-16 05:00:00 14.4 3 Nordeste 10 Nordeste 0 -- -- 80
2018-09-16 04:00:00 15.7 4 Nordeste 10 Este 0 -- -- 75
2018-09-16 03:00:00 16.3 6 Este 15 Este 0 -- -- 72
2018-09-16 02:00:00 16.9 8 Este 17 Este 0 -- -- 70
2018-09-16 01:00:00 17.8 13 Este 21 Este 0 -- -- 66
2018-09-16 00:00:00 18.7 9 Este 14 Este 0 -- -- 61
2018-09-15 23:00:00 19.7 8 Nordeste 18 Este 0 -- -- 53
2018-09-15 22:00:00 21.6 13 Este 19 Este 0 -- -- 49
2018-09-15 21:00:00 23.7 8 Sudeste 20 Sudeste 0 -- -- 43
2018-09-15 20:00:00 26.4 9 Sudeste 17 Sudeste 0 -- -- 36
2018-09-15 19:00:00 28.3 8 Sur 19 Sur 0 -- -- 33
2018-09-15 18:00:00 27.7 14 Sur 30 Sur 0 -- -- 35
2018-09-15 17:00:00 29.2 10 Este 17 Este 0 -- -- 31
2018-09-15 16:00:00 29.4 12 Este 22 Este 0 -- -- 32
2018-09-15 15:00:00 29.6 15 Este 32 Este 0 -- -- 34
2018-09-15 14:00:00 29.3 6 Sudeste 23 Este 0 -- -- 37
2018-09-15 13:00:00 26.9 12 Este 21 Este 0 -- -- 43
2018-09-15 12:00:00 25.2 12 Este 24 Este 0 -- -- 50
2018-09-15 11:00:00 21.5 19 Este 28 Este 0 -- -- 60
2018-09-15 10:00:00 18.6 15 Este 26 Este 0 -- -- 68
2018-09-15 09:00:00 15.4 8 Este 18 Este 0 -- -- 80
2018-09-15 08:00:00 13.7 13 Este 18 Este 0 -- -- 86
2018-09-15 07:00:00 13.6 9 Este 15 Este 0 -- -- 86
2018-09-15 06:00:00 12.9 8 Este 14 Este 0 -- -- 87
2018-09-15 05:00:00 13.4 9 Este 13 Este 0 -- -- 87
2018-09-15 04:00:00 12.7 5 Este 13 Nordeste 0 -- -- 86
2018-09-15 03:00:00 15 6 Este 12 Este 0 -- -- 81
2018-09-15 02:00:00 16 6 Este 10 Este 0 -- -- 75
2018-09-15 01:00:00 17.2 5 Este 11 Nordeste 0 -- -- 68
2018-09-15 00:00:00 18.4 4 Este 14 Este 0 -- -- 63
2018-09-14 23:00:00 19.8 4 Nordeste 14 Este 0 -- -- 56
2018-09-14 22:00:00 21.5 12 Este 21 Este 0 -- -- 50
2018-09-14 21:00:00 23.7 11 Nordeste 18 Nordeste 0 -- -- 40
2018-09-14 20:00:00 26.2 12 Noroeste 28 Noroeste 0 -- -- 31
2018-09-14 19:00:00 29.1 12 Noroeste 27 Noroeste 0 -- -- 27
2018-09-14 18:00:00 29 13 Noroeste 26 Oeste 0 -- -- 24
2018-09-14 17:00:00 29.8 10 Oeste 24 Oeste 0 -- -- 23
2018-09-14 16:00:00 28.6 17 Noroeste 25 Oeste 0 -- -- 22
2018-09-14 15:00:00 28.7 10 Oeste 19 Oeste 0 -- -- 26
2018-09-14 14:00:00 28.2 9 Sudoeste 18 Sudoeste 0 -- -- 31
2018-09-14 13:00:00 27.4 5 Oeste 13 Oeste 0 -- -- 35
2018-09-14 12:00:00 25.4 7 Este 15 Este 0 -- -- 44
2018-09-14 11:00:00 21.4 11 Este 15 Este 0 -- -- 54
2018-09-14 10:00:00 16.5 8 Este 12 Este 0 -- -- 65
2018-09-14 09:00:00 11.8 5 Este 8 Este 0 -- -- 84
2018-09-14 08:00:00 9 4 Este 8 Este 0 -- -- 93
2018-09-14 07:00:00 9 5 Este 7 Este 0 -- -- 91
2018-09-14 06:00:00 9.6 5 Este 11 Nordeste 0 -- -- 91
2018-09-14 05:00:00 10 7 Este 12 Nordeste 0 -- -- 89
2018-09-14 04:00:00 10.4 4 Este 8 Este 0 -- -- 88
2018-09-14 03:00:00 10.9 4 Sudeste 8 Este 0 -- -- 87
2018-09-14 02:00:00 12 3 Este 6 Sudeste 0 -- -- 83
2018-09-14 01:00:00 15 3 Este 5 Este 0 -- -- 72
2018-09-14 00:00:00 17.1 2 Este 5 Este 0 -- -- 65
2018-09-13 23:00:00 18.2 3 Este 10 Este 0 -- -- 60
2018-09-13 22:00:00 19.4 8 Nordeste 14 Norte 0 -- -- 51
2018-09-13 21:00:00 23 12 Noroeste 16 Noroeste 0 -- -- 37
2018-09-13 20:00:00 26 13 Noroeste 22 Noroeste 0 -- -- 32
2018-09-13 19:00:00 27.8 14 Noroeste 25 Oeste 0 -- -- 31
2018-09-13 18:00:00 28.3 19 Noroeste 28 Noroeste 0 -- -- 32
2018-09-13 17:00:00 28.4 16 Noroeste 32 Oeste 0 -- -- 30
2018-09-13 16:00:00 28.4 12 Oeste 42 Noroeste 0 -- -- 31
2018-09-13 15:00:00 27.6 14 Oeste 28 Oeste 0 -- -- 33
2018-09-13 14:00:00 27.1 17 Noroeste 33 Oeste 0 -- -- 35
2018-09-13 13:00:00 26.6 9 Oeste 20 Oeste 0 -- -- 37
2018-09-13 12:00:00 26.1 4 Sudoeste 9 Sudoeste 0 -- -- 40
2018-09-13 11:00:00 22.6 0 Calma 7 Este 0 -- -- 53
2018-09-13 10:00:00 17.6 2 Norte 6 Sudeste 0 -- -- 70
2018-09-13 09:00:00 13 4 Este 6 Este 0 -- -- 89
2018-09-13 08:00:00 11.5 4 Este 5 Este 0 -- -- 91
2018-09-13 07:00:00 11.8 2 Noroeste 7 Este 0 -- -- 91
2018-09-13 06:00:00 12.2 6 Nordeste 9 Nordeste 0 -- -- 90
2018-09-13 05:00:00 13.3 3 Nordeste 8 Nordeste 0 -- -- 86
2018-09-13 04:00:00 13.3 3 Este 5 Este 0 -- -- 85
2018-09-13 03:00:00 14 2 Este 7 Este 0 -- -- 84
2018-09-13 02:00:00 15.8 6 Este 12 Nordeste 0 -- -- 78
2018-09-13 01:00:00 16.8 7 Este 11 Este 0 -- -- 74
2018-09-13 00:00:00 18.1 5 Este 15 Nordeste 0 -- -- 68
2018-09-12 23:00:00 19.1 5 Este 13 Este 0 -- -- 61
2018-09-12 22:00:00 20.2 5 Nordeste 12 Este 0 -- -- 56
2018-09-12 21:00:00 21.9 6 Este 15 Noroeste 0 -- -- 48
2018-09-12 20:00:00 26.4 10 Noroeste 27 Noroeste 0 -- -- 34
2018-09-12 19:00:00 28 15 Noroeste 34 Oeste 0 -- -- 30
2018-09-12 18:00:00 28.1 12 Noroeste 30 Noroeste 0 -- -- 28
2018-09-12 17:00:00 28 16 Oeste 35 Noroeste 0 -- -- 33
2018-09-12 16:00:00 27.6 16 Oeste 35 Oeste 0 -- -- 34
2018-09-12 15:00:00 26 14 Oeste 31 Oeste 0 -- -- 39
2018-09-12 14:00:00 25.9 8 Oeste 20 Sudoeste 0 -- -- 41
2018-09-12 13:00:00 25 5 Norte 12 Noroeste 0 -- -- 46
2018-09-12 12:00:00 23.9 6 Este 14 Este 0 -- -- 49
2018-09-12 11:00:00 20.5 7 Este 15 Este 0 -- -- 66
2018-09-12 10:00:00 15.4 4 Este 6 Este 0 -- -- 89
2018-09-12 09:00:00 12.4 3 Este 7 Este 0 -- -- 94
2018-09-12 08:00:00 12.5 3 Este 6 Este 0 -- -- 94
2018-09-12 07:00:00 13.1 3 Este 8 Nordeste 0 -- -- 91
2018-09-12 06:00:00 13.8 4 Este 10 Este 0 -- -- 90
2018-09-12 05:00:00 14.3 6 Nordeste 12 Este 0 -- -- 89
2018-09-12 04:00:00 13.3 5 Este 8 Nordeste 0 -- -- 91
2018-09-12 03:00:00 13.8 6 Nordeste 8 Nordeste 0 -- -- 90
2018-09-12 02:00:00 14.2 4 Este 13 Este 0 -- -- 86
2018-09-12 01:00:00 14.3 7 Este 9 Este 0 -- -- 84
2018-09-12 00:00:00 15.3 5 Nordeste 10 Este 0 -- -- 81
2018-09-11 23:00:00 16.6 9 Este 14 Este 0 -- -- 79
2018-09-11 22:00:00 17.6 8 Nordeste 11 Este 0 -- -- 77
2018-09-11 21:00:00 18.1 3 Nordeste 10 Nordeste 0 -- -- 74
2018-09-11 20:00:00 19.3 6 Nordeste 14 Nordeste 0 -- -- 69
2018-09-11 19:00:00 19.8 7 Nordeste 18 Nordeste 0 -- -- 61
2018-09-11 18:00:00 19.9 16 Nordeste 30 Nordeste 0 -- -- 59
2018-09-11 17:00:00 21.5 21 Este 42 Este 0 -- -- 55
2018-09-11 16:00:00 27 27 Este 42 Este 0 -- -- 34
2018-09-11 15:00:00 25.7 14 Este 34 Este 0 -- -- 41
2018-09-11 14:00:00 25.8 21 Este 31 Sudeste 0 -- -- 39
2018-09-11 13:00:00 24.9 15 Este 28 Este 0 -- -- 43
2018-09-11 12:00:00 23.8 13 Sudeste 22 Este 0 -- -- 47
2018-09-11 11:00:00 21.4 13 Este 21 Este 0 -- -- 62
2018-09-11 10:00:00 17.1 10 Este 13 Este 0 -- -- 76
2018-09-11 09:00:00 12.4 3 Este 6 Este 0 -- -- 94
2018-09-11 08:00:00 10 4 Este 8 Este 0 -- -- 95
2018-09-11 07:00:00 10.6 4 Nordeste 6 Este 0 -- -- 94
2018-09-11 06:00:00 11.3 3 Nordeste 6 Nordeste 0 -- -- 94
2018-09-11 05:00:00 11.9 3 Este 7 Este 0 -- -- 92
2018-09-11 04:00:00 12.9 5 Este 10 Este 0 -- -- 89
2018-09-11 03:00:00 13.4 5 Este 10 Este 0 -- -- 87
2018-09-11 02:00:00 14.2 5 Este 9 Este 0 -- -- 84
2018-09-11 01:00:00 15.5 6 Nordeste 12 Este 0 -- -- 79
2018-09-11 00:00:00 16.4 6 Este 15 Este 0 -- -- 75
2018-09-10 23:00:00 17.4 7 Este 11 Este 0 -- -- 71
2018-09-10 22:00:00 18.8 6 Este 9 Este 0 -- -- 64
2018-09-10 21:00:00 20.8 6 Este 24 Este 0 -- -- 57
2018-09-10 20:00:00 23.3 16 Este 28 Sudeste 0 -- -- 46
2018-09-10 19:00:00 24.4 22 Sudeste 33 Este 0 -- -- 43
2018-09-10 18:00:00 24.6 22 Sudeste 32 Este 0 -- -- 42
2018-09-10 17:00:00 26.9 9 Sudeste 24 Este 0 -- -- 38
2018-09-10 16:00:00 27.3 9 Sur 24 Sudeste 0 -- -- 36
2018-09-10 15:00:00 26.9 9 Este 23 Sudeste 0 -- -- 37
2018-09-10 14:00:00 25.6 10 Sudeste 24 Este 0 -- -- 42
2018-09-10 13:00:00 24.2 5 Sur 17 Este 0 -- -- 47
2018-09-10 12:00:00 22.8 10 Este 21 Sudeste 0 -- -- 53
2018-09-10 11:00:00 20 9 Este 19 Sudeste 0 -- -- 62
2018-09-10 10:00:00 15.8 4 Este 8 Este 0 -- -- 82
2018-09-10 09:00:00 11.6 5 Este 9 Este 0 -- -- 94
2018-09-10 08:00:00 9.5 2 Este 6 Este 0 -- -- 95
2018-09-10 07:00:00 10.4 3 Este 5 Este 0 -- -- 96
2018-09-10 06:00:00 10.6 2 Este 8 Sudeste 0 -- -- 96
2018-09-10 05:00:00 11 3 Este 7 Sudeste 0 -- -- 94
2018-09-10 04:00:00 11.8 2 Este 5 Sudeste 0 -- -- 92
2018-09-10 03:00:00 13.7 4 Nordeste 5 Nordeste 0 -- -- 88
2018-09-10 02:00:00 14.6 0 Calma 4 Este 0 -- -- 85
2018-09-10 01:00:00 15.5 2 Este 13 Este 0 -- -- 80
2018-09-10 00:00:00 16.7 8 Este 14 Este 0 -- -- 75
2018-09-09 23:00:00 18.2 6 Este 10 Este 0 -- -- 67
2018-09-09 22:00:00 18.7 5 Este 22 Este 0 -- -- 65
2018-09-09 21:00:00 21.4 15 Este 25 Este 0 -- -- 50
2018-09-09 20:00:00 23.8 14 Noroeste 27 Noroeste 0 -- -- 41
2018-09-09 19:00:00 25.3 15 Noroeste 29 Noroeste 0 -- -- 33
2018-09-09 18:00:00 25.9 17 Noroeste 26 Oeste 0 -- -- 33
2018-09-09 17:00:00 26 12 Noroeste 22 Noroeste 0 -- -- 33
2018-09-09 16:00:00 26.2 8 Oeste 22 Sudoeste 0 -- -- 33
2018-09-09 15:00:00 25 10 Sudoeste 21 Oeste 0 -- -- 36
2018-09-09 14:00:00 24.2 8 Sur 15 Sur 0 -- -- 35
2018-09-09 13:00:00 23 8 Sudoeste 15 Sur 0 -- -- 45
2018-09-09 12:00:00 21.9 6 Este 16 Sudeste 0 -- -- 57
2018-09-09 11:00:00 18.6 3 Noroeste 9 Este 0 -- -- 65
2018-09-09 10:00:00 15.3 6 Este 10 Este 0 -- -- 78
2018-09-09 09:00:00 11.8 4 Nordeste 6 Este 0 -- -- 94
2018-09-09 08:00:00 10.8 0 Calma 8 Este 0 -- -- 94
2018-09-09 07:00:00 11.3 3 Este 6 Sudeste 0 -- -- 93
2018-09-09 06:00:00 11.6 0 Calma 9 Noroeste 0 -- -- 90
2018-09-09 05:00:00 12.6 10 Oeste 26 Oeste 0 -- -- 87
2018-09-09 04:00:00 13.2 22 Oeste 49 Sudoeste 0.6 -- -- 83
2018-09-09 03:00:00 14.7 0 Calma 7 Este 0 -- -- 92
2018-09-09 02:00:00 14.9 3 Este 11 Este 0 -- -- 91
2018-09-09 01:00:00 14.9 3 Este 10 Este 0 -- -- 90
2018-09-09 00:00:00 15.2 4 Nordeste 14 Nordeste 0 -- -- 88
2018-09-08 23:00:00 15.9 7 Nordeste 21 Este 0.2 -- -- 85
2018-09-08 22:00:00 16.1 9 Este 18 Este 2.6 -- -- 89
2018-09-08 21:00:00 17.5 4 Nordeste 9 Oeste 0 -- -- 78
2018-09-08 20:00:00 19.1 6 Oeste 9 Oeste 0 -- -- 62
2018-09-08 19:00:00 20.1 6 Nordeste 25 Noroeste 0.2 -- -- 67
2018-09-08 18:00:00 19 19 Noroeste 42 Oeste 1.4 -- -- 65
2018-09-08 17:00:00 24.4 14 Sudoeste 24 Sudoeste 0 -- -- 43
2018-09-08 16:00:00 23.2 18 Sudoeste 28 Sudoeste 0 -- -- 46
2018-09-08 15:00:00 23.4 19 Sudoeste 35 Sudoeste 0.4 -- -- 48
2018-09-08 14:00:00 22.8 25 Sudeste 37 Sudeste 0 -- -- 51
2018-09-08 13:00:00 23.8 23 Sudeste 39 Este 0 -- -- 50
2018-09-08 12:00:00 22.4 18 Este 33 Este 0 -- -- 55
2018-09-08 11:00:00 19.9 19 Este 29 Este 0 -- -- 64
2018-09-08 10:00:00 17.5 19 Este 27 Este 0 -- -- 76
2018-09-08 09:00:00 13.8 3 Este 8 Este 0 -- -- 89
2018-09-08 08:00:00 11.8 4 Este 8 Nordeste 0 -- -- 91
2018-09-08 07:00:00 12.6 6 Nordeste 10 Nordeste 0 -- -- 88
2018-09-08 06:00:00 13.9 5 Nordeste 14 Norte 0 -- -- 83
2018-09-08 05:00:00 15 8 Nordeste 35 Sur 0 -- -- 72
2018-09-08 04:00:00 15.3 18 Sudoeste 39 Sur 1.4 -- -- 73
2018-09-08 03:00:00 15.9 8 Este 24 Este 0 -- -- 78
2018-09-08 02:00:00 16.9 19 Este 28 Este 0 -- -- 72
2018-09-08 01:00:00 16.5 19 Este 27 Este 0 -- -- 71
2018-09-08 00:00:00 17.1 17 Este 24 Este 0 -- -- 66
2018-09-07 23:00:00 17.4 11 Este 34 Sudeste 0 -- -- 69
2018-09-07 22:00:00 18.8 23 Este 42 Sudeste 0 -- -- 63
2018-09-07 21:00:00 21.4 26 Este 35 Este 0 -- -- 50
2018-09-07 20:00:00 24.4 8 Este 15 Nordeste 0 -- -- 39
2018-09-07 19:00:00 26.7 6 Nordeste 20 Este 0 -- -- 33
2018-09-07 18:00:00 26.7 10 Este 25 Este 0 -- -- 33
2018-09-07 17:00:00 26.7 8 Norte 20 Este 0 -- -- 35
2018-09-07 16:00:00 25.9 10 Este 21 Este 0 -- -- 35
2018-09-07 15:00:00 24.9 11 Este 23 Sudeste 0 -- -- 40
2018-09-07 14:00:00 22.6 12 Sudeste 25 Sudeste 0 -- -- 46
2018-09-07 13:00:00 21.5 12 Este 26 Sudeste 0 -- -- 50
2018-09-07 12:00:00 20.2 14 Este 24 Este 0 -- -- 54
2018-09-07 11:00:00 17.3 13 Este 19 Este 0 -- -- 66
2018-09-07 10:00:00 13.2 4 Este 8 Este 0 -- -- 91
2018-09-07 09:00:00 9.7 4 Este 6 Este 0 -- -- 97
2018-09-07 08:00:00 7.6 4 Este 6 Nordeste 0 -- -- 98
2018-09-07 07:00:00 7.4 2 Sudeste 6 Sudeste 0 -- -- 97
2018-09-07 06:00:00 7.8 2 Sudeste 4 Sudeste 0 -- -- 97
2018-09-07 05:00:00 8.5 0 Calma 4 Norte 0 -- -- 96
2018-09-07 04:00:00 9.1 0 Calma 5 Sur 0 -- -- 97
2018-09-07 03:00:00 9.9 3 Este 6 Sur 0 -- -- 96
2018-09-07 02:00:00 10.7 0 Calma 5 Sudeste 0 -- -- 96
2018-09-07 01:00:00 12.3 2 Nordeste 5 Sur 0 -- -- 94
2018-09-07 00:00:00 12.5 3 Sudeste 6 Nordeste 0 -- -- 94
2018-09-06 23:00:00 13.5 2 Noroeste 8 Este 0 -- -- 92
2018-09-06 22:00:00 14.7 4 Norte 9 Nordeste 0 -- -- 87
2018-09-06 21:00:00 16 0 Calma 12 Sudeste 0 -- -- 79
2018-09-06 20:00:00 17.8 10 Sur 14 Sur 0 -- -- 74
2018-09-06 19:00:00 18.2 5 Este 10 Sudoeste 0 -- -- 72
2018-09-06 18:00:00 17.3 9 Sudoeste 21 Sudoeste 0 -- -- 76
2018-09-06 17:00:00 16.8 14 Nordeste 27 Este 0 -- -- 75
2018-09-06 16:00:00 16.5 15 Este 32 Nordeste 2.8 -- -- 81
2018-09-06 15:00:00 20.5 8 Sudoeste 17 Noroeste 0 -- -- 58
2018-09-06 14:00:00 20.4 10 Noroeste 19 Norte 0 -- -- 57
2018-09-06 13:00:00 22 5 Este 18 Este 0 -- -- 53
2018-09-06 12:00:00 20.8 13 Sudeste 22 Este 0 -- -- 56
2018-09-06 11:00:00 18.4 11 Sudeste 15 Este 0 -- -- 69
2018-09-06 10:00:00 14.9 5 Este 8 Este 0 -- -- 87
2018-09-06 09:00:00 12.2 4 Este 9 Este 0 -- -- 95
2018-09-06 08:00:00 10.9 5 Nordeste 8 Este 0 -- -- 96
2018-09-06 07:00:00 11.3 3 Nordeste 5 Sudeste 0 -- -- 95
2018-09-06 06:00:00 11.8 4 Este 6 Nordeste 0 -- -- 93
2018-09-06 05:00:00 13 3 Nordeste 6 Este 0 -- -- 89
2018-09-06 04:00:00 14.3 6 Este 12 Este -- -- -- 86
2018-09-06 03:00:00 14.1 2 Noroeste 11 Este 0 -- -- 89
2018-09-06 02:00:00 14.1 3 Este 9 Este 0 -- -- 90
2018-09-06 01:00:00 14.5 7 Este 12 Este 0.2 -- -- 89
2018-09-06 00:00:00 15.5 3 Oeste 9 Nordeste 0 -- -- 83
2018-09-05 23:00:00 14.9 3 Norte 7 Nordeste 0 -- -- 84
2018-09-05 22:00:00 16.3 3 Este 8 Nordeste 0.2 -- -- 74
2018-09-05 21:00:00 18.2 3 Noroeste 18 Noroeste 0 -- -- 65
2018-09-05 20:00:00 19.3 7 Oeste 15 Oeste 0 -- -- 57
2018-09-05 19:00:00 19.9 10 Oeste 23 Oeste 0 -- -- 54
2018-09-05 18:00:00 20.9 16 Oeste 30 Sudoeste 0 -- -- 47
2018-09-05 17:00:00 21.2 21 Oeste 39 Oeste 0 -- -- 50
2018-09-05 16:00:00 22.8 15 Oeste 24 Oeste 0 -- -- 47
2018-09-05 15:00:00 23.8 14 Oeste 31 Oeste 0 -- -- 44
2018-09-05 14:00:00 25.4 13 Sudoeste 24 Oeste 0 -- -- 41
2018-09-05 13:00:00 24.2 12 Noroeste 25 Oeste 0 -- -- 45
2018-09-05 12:00:00 22.9 8 Oeste 14 Sudeste 0 -- -- 52
2018-09-05 11:00:00 20.9 10 Sudeste 24 Este 0 -- -- 60
2018-09-05 10:00:00 18.1 21 Este 28 Este 0 -- -- 71
2018-09-05 09:00:00 16.4 14 Este 24 Este 0 -- -- 77
2018-09-05 08:00:00 14.8 12 Este 19 Este 0 -- -- 81
2018-09-05 07:00:00 14.9 12 Este 20 Este 0 -- -- 82
2018-09-05 06:00:00 15.3 8 Este 17 Este 0 -- -- 78
2018-09-05 05:00:00 15.3 13 Este 18 Este 0 -- -- 77
2018-09-05 04:00:00 13.9 8 Este 13 Este 0 -- -- 81
2018-09-05 03:00:00 14.6 9 Este 15 Este 0 -- -- 77
2018-09-05 02:00:00 15.2 8 Este 13 Este 0 -- -- 73
2018-09-05 01:00:00 16.8 5 Este 11 Este 0 -- -- 67
2018-09-05 00:00:00 17.1 7 Este 17 Este 0 -- -- 67
2018-09-04 23:00:00 18.4 8 Este 18 Nordeste 0 -- -- 61
2018-09-04 22:00:00 19.7 12 Nordeste 35 Nordeste 0 -- -- 59
2018-09-04 21:00:00 21.3 13 Nordeste 27 Este 0 -- -- 49
2018-09-04 20:00:00 22.2 5 Norte 44 Oeste 0 -- -- 39
2018-09-04 19:00:00 23.8 30 Oeste 45 Oeste 0 -- -- 36
2018-09-04 18:00:00 26.1 21 Sudoeste 42 Sudoeste 0 -- -- 33
2018-09-04 17:00:00 29.4 7 Sur 26 Sudoeste 0 -- -- 28
2018-09-04 16:00:00 30.3 6 Sur 24 Sudoeste 0 -- -- 25
2018-09-04 15:00:00 28.7 8 Sur 22 Oeste 0 -- -- 26
2018-09-04 14:00:00 27.8 11 Oeste 22 Oeste 0 -- -- 31
2018-09-04 13:00:00 26.8 9 Oeste 18 Sudoeste 0 -- -- 36
2018-09-04 12:00:00 25.6 6 Nordeste 20 Este 0 -- -- 44
2018-09-04 11:00:00 22.3 15 Este 21 Este 0 -- -- 53
2018-09-04 10:00:00 19.4 14 Este 22 Este 0 -- -- 60
2018-09-04 09:00:00 16.5 12 Este 16 Este 0 -- -- 68
2018-09-04 08:00:00 14.6 9 Este 15 Este 0 -- -- 73
2018-09-04 07:00:00 14.8 8 Este 13 Este 0 -- -- 73
2018-09-04 06:00:00 15.4 7 Este 18 Este 0 -- -- 71
2018-09-04 05:00:00 16.4 12 Este 17 Nordeste 0 -- -- 67
2018-09-04 04:00:00 16.9 5 Nordeste 12 Nordeste 0 -- -- 65
2018-09-04 03:00:00 17.3 5 Nordeste 14 Este 0 -- -- 64
2018-09-04 02:00:00 18.5 10 Este 25 Este 0 -- -- 59
2018-09-04 01:00:00 19.5 16 Este 26 Este 0 -- -- 56
2018-09-04 00:00:00 20.6 18 Este 32 Este 0 -- -- 53
2018-09-03 23:00:00 21.6 23 Este 33 Este 0 -- -- 52
2018-09-03 22:00:00 22.5 21 Este 43 Este 0 -- -- 48
2018-09-03 21:00:00 24.4 23 Este 43 Este 0 -- -- 41
2018-09-03 20:00:00 29 7 Sur 19 Sudoeste 0 -- -- 21
2018-09-03 19:00:00 29.7 15 Sudoeste 25 Sur 0 -- -- 21
2018-09-03 18:00:00 31.5 11 Sur 27 Sudoeste 0 -- -- 20
2018-09-03 17:00:00 32.3 15 Sur 29 Este 0 -- -- 19
2018-09-03 16:00:00 30.7 15 Sur 40 Este 0 -- -- 24
2018-09-03 15:00:00 30.9 22 Este 38 Este 0 -- -- 29
2018-09-03 14:00:00 29.2 18 Este 29 Este 0 -- -- 29
2018-09-03 13:00:00 29.9 11 Sudeste 26 Este 0 -- -- 27
2018-09-03 12:00:00 27.3 15 Sudeste 25 Este 0 -- -- 34
2018-09-03 11:00:00 24 13 Este 19 Este 0 -- -- 43
2018-09-03 10:00:00 22.2 10 Nordeste 15 Este 0 -- -- 44
2018-09-03 09:00:00 20.2 14 Sudeste 30 Sur 0 -- -- 48
2018-09-03 08:00:00 20.3 8 Noroeste 45 Oeste 0 -- -- 49
2018-09-03 07:00:00 18.6 8 Este 19 Norte 0 -- -- 51
2018-09-03 06:00:00 17.8 5 Norte 14 Nordeste 0 -- -- 54
2018-09-03 05:00:00 16.8 4 Sudeste 12 Sudoeste 0 -- -- 58
2018-09-03 04:00:00 16.9 6 Este 14 Nordeste 0 -- -- 57
2018-09-03 03:00:00 17.2 6 Este 12 Este 0 -- -- 56
2018-09-03 02:00:00 18.2 4 Este 11 Nordeste 0 -- -- 53
2018-09-03 01:00:00 19.6 7 Este 12 Este 0 -- -- 49
2018-09-03 00:00:00 21.2 6 Nordeste 13 Este 0 -- -- 45
2018-09-02 23:00:00 21.7 4 Este 11 Este 0 -- -- 45
2018-09-02 22:00:00 23.5 9 Este 13 Este 0 -- -- 39
2018-09-02 21:00:00 27.2 8 Noroeste 14 Noroeste 0 -- -- 28
2018-09-02 20:00:00 30.7 13 Noroeste 24 Noroeste 0 -- -- 23
2018-09-02 19:00:00 30.7 17 Noroeste 34 Noroeste 0 -- -- 23
2018-09-02 18:00:00 32.1 24 Oeste 42 Noroeste 0 -- -- 21
2018-09-02 17:00:00 32.5 24 Oeste 41 Oeste 0 -- -- 21
2018-09-02 16:00:00 32.9 14 Oeste 37 Oeste 0 -- -- 21
2018-09-02 15:00:00 31.1 20 Noroeste 38 Oeste 0 -- -- 23
2018-09-02 14:00:00 31.1 9 Oeste 20 Noroeste 0 -- -- 23
2018-09-02 13:00:00 30.4 6 Este 17 Este 0 -- -- 33
2018-09-02 12:00:00 27.7 9 Este 18 Este 0 -- -- 42
2018-09-02 11:00:00 24.2 12 Sudeste 21 Este 0 -- -- 45
2018-09-02 10:00:00 20.7 9 Este 13 Este 0 -- -- 52
2018-09-02 09:00:00 15.7 9 Este 14 Este 0 -- -- 69
2018-09-02 08:00:00 12.4 7 Nordeste 9 Nordeste 0 -- -- 81
2018-09-02 07:00:00 11.3 3 Este 10 Nordeste 0 -- -- 82
2018-09-02 06:00:00 11.9 6 Nordeste 10 Este 0 -- -- 80
2018-09-02 05:00:00 12.3 4 Este 9 Nordeste 0 -- -- 77
2018-09-02 04:00:00 12.3 6 Este 8 Este 0 -- -- 79
2018-09-02 03:00:00 13.4 5 Este 7 Nordeste 0 -- -- 75
2018-09-02 02:00:00 16 4 Nordeste 10 Este 0 -- -- 66
2018-09-02 01:00:00 18.7 7 Este 10 Este 0 -- -- 56
2018-09-02 00:00:00 20.2 7 Este 13 Nordeste 0 -- -- 50
2018-09-01 23:00:00 21.6 6 Nordeste 20 Nordeste 0 -- -- 46
2018-09-01 22:00:00 23.3 8 Este 19 Este 0 -- -- 41
2018-09-01 21:00:00 24.6 7 Noroeste 8 Noroeste 0 -- -- 32
2018-09-01 20:00:00 30.6 7 Noroeste 17 Noroeste 0 -- -- 22
2018-09-01 19:00:00 31.5 7 Noroeste 19 Noroeste 0 -- -- 21
2018-09-01 18:00:00 31.5 11 Oeste 21 Oeste 0 -- -- 22
2018-09-01 17:00:00 31.4 9 Sudeste 16 Sudeste 0 -- -- 24
2018-09-01 16:00:00 32.3 5 Sudoeste 18 Este 0 -- -- 24
2018-09-01 15:00:00 31.2 6 Este 18 Este 0 -- -- 27
2018-09-01 14:00:00 29.5 5 Este 17 Este 0 -- -- 29
2018-09-01 13:00:00 27.5 8 Sudeste 21 Este 0 -- -- 34
2018-09-01 12:00:00 25.5 12 Este 20 Este 0 -- -- 38
2018-09-01 11:00:00 22.6 8 Este 16 Este 0 -- -- 50
2018-09-01 10:00:00 18 6 Este 10 Este 0 -- -- 65
2018-09-01 09:00:00 13 5 Este 8 Este 0 -- -- 79
2018-09-01 08:00:00 10 4 Este 8 Este 0 -- -- 91
2018-09-01 07:00:00 10.6 5 Nordeste 7 Este 0 -- -- 90
2018-09-01 06:00:00 10.4 5 Este 7 Este 0 -- -- 89
2018-09-01 05:00:00 11.7 4 Nordeste 8 Nordeste 0 -- -- 87
2018-09-01 04:00:00 12.8 4 Nordeste 7 Este 0 -- -- 82
2018-09-01 03:00:00 13.6 3 Nordeste 11 Este 0 -- -- 81
2018-09-01 02:00:00 15.7 7 Este 14 Este 0 -- -- 74
2018-09-01 01:00:00 17.4 10 Sudeste 14 Sudeste 0 -- -- 67
2018-09-01 00:00:00 18.7 8 Este 20 Sudeste 0 -- -- 62
2018-08-31 23:00:00 20.1 3 Nordeste 31 Este 0 -- -- 54
2018-08-31 22:00:00 22.1 26 Este 38 Este 0 -- -- 48
2018-08-31 21:00:00 24.4 17 Este 27 Sudeste 0 -- -- 39
2018-08-31 20:00:00 27.8 18 Oeste 24 Oeste 0 -- -- 29
2018-08-31 19:00:00 29.1 18 Noroeste 28 Oeste 0 -- -- 25
2018-08-31 18:00:00 29.8 14 Noroeste 30 Noroeste 0 -- -- 24
2018-08-31 17:00:00 29.5 19 Oeste 35 Oeste 0 -- -- 24
2018-08-31 16:00:00 28.8 20 Oeste 35 Oeste 0 -- -- 26
2018-08-31 15:00:00 28.2 15 Noroeste 31 Noroeste 0 -- -- 30
2018-08-31 14:00:00 27.7 12 Oeste 30 Oeste 0 -- -- 35
2018-08-31 13:00:00 27.1 9 Oeste 20 Noroeste 0 -- -- 39
2018-08-31 12:00:00 25.5 4 Este 10 Este 0 -- -- 47
2018-08-31 11:00:00 21.9 4 Sudeste 13 Este 0 -- -- 56
2018-08-31 10:00:00 17.6 5 Este 9 Este 0 -- -- 68
2018-08-31 09:00:00 13.2 3 Este 5 Nordeste 0 -- -- 84
2018-08-31 08:00:00 11.2 0 Calma 8 Este 0 -- -- 89
2018-08-31 07:00:00 11.6 4 Nordeste 11 Nordeste 0 -- -- 88
2018-08-31 06:00:00 11.6 8 Nordeste 10 Nordeste 0 -- -- 89
2018-08-31 05:00:00 11.4 3 Este 9 Nordeste 0 -- -- 88
2018-08-31 04:00:00 12.9 6 Nordeste 9 Nordeste 0 -- -- 84
2018-08-31 03:00:00 14.6 4 Este 6 Nordeste 0 -- -- 79
2018-08-31 02:00:00 16.4 4 Este 10 Este 0 -- -- 73
2018-08-31 01:00:00 17.7 6 Este 13 Sudeste 0 -- -- 69
2018-08-31 00:00:00 19.2 7 Sudeste 14 Sudeste 0 -- -- 63
2018-08-30 23:00:00 20.5 8 Este 21 Nordeste 0 -- -- 57
2018-08-30 22:00:00 22 12 Este 22 Nordeste 0 -- -- 51
2018-08-30 21:00:00 24.6 8 Norte 22 Noroeste 0 -- -- 37
2018-08-30 20:00:00 27.3 14 Noroeste 26 Noroeste 0 -- -- 31
2018-08-30 19:00:00 28.7 17 Noroeste 30 Noroeste 0 -- -- 29
2018-08-30 18:00:00 29.3 19 Noroeste 33 Noroeste 0 -- -- 27
2018-08-30 17:00:00 29.4 18 Noroeste 32 Oeste 0 -- -- 29
2018-08-30 16:00:00 29.7 16 Oeste 32 Oeste 0 -- -- 29
2018-08-30 15:00:00 28.4 12 Noroeste 23 Noroeste 0 -- -- 33
2018-08-30 14:00:00 28.1 9 Noroeste 18 Noroeste 0 -- -- 35
2018-08-30 13:00:00 26.8 7 Nordeste 15 Norte 0 -- -- 43
2018-08-30 12:00:00 25.1 6 Este 22 Sudeste 0 -- -- 48
2018-08-30 11:00:00 21.9 13 Este 22 Este 0 -- -- 56
2018-08-30 10:00:00 18.6 12 Este 18 Este 0 -- -- 69
2018-08-30 09:00:00 14.8 6 Este 9 Este 0 -- -- 82
2018-08-30 08:00:00 12.4 5 Este 9 Este 0 -- -- 92
2018-08-30 07:00:00 12.2 5 Este 10 Este 0 -- -- 91
2018-08-30 06:00:00 12.6 5 Este 9 Nordeste 0 -- -- 90
2018-08-30 05:00:00 13.7 3 Nordeste 8 Este 0 -- -- 87
2018-08-30 04:00:00 14.9 4 Nordeste 9 Sudeste 0 -- -- 83
2018-08-30 03:00:00 15.6 5 Este 13 Este 0 -- -- 81
2018-08-30 02:00:00 16.7 8 Este 19 Sudeste 0 -- -- 77
2018-08-30 01:00:00 17.2 8 Este 17 Este 0 -- -- 75
2018-08-30 00:00:00 18.2 8 Sudeste 23 Sudeste 0 -- -- 71
2018-08-29 23:00:00 19.7 16 Este 23 Este 0 -- -- 64
2018-08-29 22:00:00 21.1 15 Este 22 Este 0 -- -- 59
2018-08-29 21:00:00 22.5 13 Este 27 Este 0 -- -- 53
2018-08-29 20:00:00 24.3 19 Nordeste 36 Este 0 -- -- 48
2018-08-29 19:00:00 30.5 7 Noroeste 23 Noroeste 0 -- -- 23
2018-08-29 18:00:00 29.8 13 Noroeste 25 Sudoeste 0 -- -- 25
2018-08-29 17:00:00 30.2 13 Noroeste 20 Oeste 0 -- -- 26
2018-08-29 16:00:00 30.1 6 Sur 20 Sur 0 -- -- 27
2018-08-29 15:00:00 28.9 10 Oeste 22 Sudoeste 0 -- -- 29
2018-08-29 14:00:00 28.1 9 Oeste 19 Norte 0 -- -- 32
2018-08-29 13:00:00 27.7 5 Sudoeste 11 Sudoeste 0 -- -- 38
2018-08-29 12:00:00 26.1 4 Oeste 9 Sudoeste 0 -- -- 42
2018-08-29 11:00:00 23.3 4 Este 8 Nordeste 0 -- -- 50
2018-08-29 10:00:00 18.6 2 Sudeste 8 Este 0 -- -- 58
2018-08-29 09:00:00 14 4 Este 6 Nordeste 0 -- -- 68
2018-08-29 08:00:00 10.7 3 Este 5 Sudeste 0 -- -- 78
2018-08-29 07:00:00 10.5 2 Este 4 Sudeste 0 -- -- 77
2018-08-29 06:00:00 11.1 2 Sudeste 6 Sudeste 0 -- -- 72
2018-08-29 05:00:00 12.7 0 Calma 5 Este 0 -- -- 65
2018-08-29 04:00:00 13.2 3 Este 10 Este 0 -- -- 62
2018-08-29 03:00:00 13.1 2 Nordeste 5 Nordeste 0 -- -- 63
2018-08-29 02:00:00 14 6 Este 9 Sudeste 0 -- -- 61
2018-08-29 01:00:00 16.9 0 Calma 15 Oeste 0 -- -- 49
2018-08-29 00:00:00 19.8 12 Oeste 16 Oeste 0 -- -- 41
2018-08-28 23:00:00 21.7 10 Sudoeste 12 Sudoeste 0 -- -- 35
2018-08-28 22:00:00 23.6 9 Oeste 18 Oeste 0 -- -- 31
2018-08-28 21:00:00 26.2 16 Oeste 36 Oeste 0 -- -- 25
2018-08-28 20:00:00 30 19 Oeste 49 Oeste 0 -- -- 15
2018-08-28 19:00:00 30.9 24 Sudoeste 44 Sur 0 -- -- 22
2018-08-28 18:00:00 31.7 27 Sudoeste 49 Sur 0 -- -- 21
2018-08-28 17:00:00 31.4 34 Sur 57 Sudoeste 0 -- -- 23
2018-08-28 16:00:00 32.1 21 Sudoeste 51 Sudoeste 0 -- -- 23
2018-08-28 15:00:00 31.5 26 Sudoeste 48 Sur 0 -- -- 23
2018-08-28 14:00:00 31.5 25 Sur 41 Sur 0 -- -- 26
2018-08-28 13:00:00 31 18 Sur 36 Sudeste 0 -- -- 29
2018-08-28 12:00:00 29.8 22 Sudeste 33 Sudeste 0 -- -- 34
2018-08-28 11:00:00 27.4 13 Este 20 Este 0 -- -- 44
2018-08-28 10:00:00 23.5 12 Este 18 Este 0 -- -- 52
2018-08-28 09:00:00 20 6 Este 8 Este 0 -- -- 56
2018-08-28 08:00:00 17.5 4 Este 20 Este 0 -- -- 60
2018-08-28 07:00:00 17.2 10 Este 15 Este 0 -- -- 61
2018-08-28 06:00:00 17.7 6 Este 12 Este 0 -- -- 58
2018-08-28 05:00:00 17.8 5 Este 16 Este 0 -- -- 58
2018-08-28 04:00:00 16.5 8 Este 10 Este 0 -- -- 62
2018-08-28 03:00:00 16.8 4 Este 8 Este 0 -- -- 60
2018-08-28 02:00:00 17.9 4 Este 7 Nordeste 0 -- -- 56
2018-08-28 01:00:00 18.1 6 Este 10 Este 0 -- -- 54
2018-08-28 00:00:00 19.6 4 Este 8 Nordeste 0 -- -- 47
2018-08-27 23:00:00 20.5 6 Sur 10 Sur 0 -- -- 48
2018-08-27 22:00:00 24.2 3 Sudeste 14 Norte 0 -- -- 36
2018-08-27 21:00:00 27.4 9 Norte 14 Noroeste 0 -- -- 27
2018-08-27 20:00:00 31.2 9 Noroeste 22 Noroeste 0 -- -- 24
2018-08-27 19:00:00 32.8 15 Noroeste 27 Oeste 0 -- -- 20
2018-08-27 18:00:00 34.2 6 Noroeste 24 Noroeste 0 -- -- 19
2018-08-27 17:00:00 33.5 9 Oeste 22 Sudoeste 0 -- -- 21
2018-08-27 16:00:00 33.4 11 Sudeste 24 Sudeste 0 -- -- 22
2018-08-27 15:00:00 33.1 7 Este 22 Este 0 -- -- 22
2018-08-27 14:00:00 31.6 6 Sudoeste 15 Sudeste 0 -- -- 24
2018-08-27 13:00:00 30.4 6 Sudoeste 16 Este 0 -- -- 28
2018-08-27 12:00:00 27.7 10 Este 18 Este 0 -- -- 36
2018-08-27 11:00:00 24.2 13 Este 21 Este 0 -- -- 44
2018-08-27 10:00:00 19.8 6 Este 13 Este 0 -- -- 56
2018-08-27 09:00:00 14.2 6 Este 9 Este 0 -- -- 72
2018-08-27 08:00:00 10.1 5 Este 8 Este 0 -- -- 84
2018-08-27 07:00:00 10.9 5 Este 8 Este 0 -- -- 80
2018-08-27 06:00:00 11.2 3 Este 6 Este 0 -- -- 77
2018-08-27 05:00:00 11.6 5 Este 8 Este 0 -- -- 75
2018-08-27 04:00:00 12.3 5 Nordeste 6 Nordeste 0 -- -- 72
2018-08-27 03:00:00 13 4 Este 8 Nordeste 0 -- -- 69
2018-08-27 02:00:00 13.6 4 Este 6 Este 0 -- -- 68
2018-08-27 01:00:00 15.3 2 Este 7 Este 0 -- -- 61
2018-08-27 00:00:00 17.8 0 Calma 5 Este 0 -- -- 52
2018-08-26 23:00:00 19.6 2 Este 8 Norte 0 -- -- 48
2018-08-26 22:00:00 23.7 8 Noroeste 15 Noroeste 0 -- -- 35
2018-08-26 21:00:00 25.4 9 Noroeste 24 Noroeste 0 -- -- 32
2018-08-26 20:00:00 28.2 16 Noroeste 30 Oeste 0 -- -- 28
2018-08-26 19:00:00 29 18 Noroeste 32 Oeste 0 -- -- 27
2018-08-26 18:00:00 28.7 19 Noroeste 30 Oeste 0 -- -- 27
2018-08-26 17:00:00 29 18 Oeste 29 Noroeste 0 -- -- 28
2018-08-26 16:00:00 28.2 20 Noroeste 32 Oeste 0 -- -- 29
2018-08-26 15:00:00 27.7 12 Noroeste 28 Oeste 0 -- -- 30
2018-08-26 14:00:00 26.9 8 Sudoeste 15 Sudoeste 0 -- -- 31
2018-08-26 13:00:00 24.8 7 Oeste 13 Noroeste 0 -- -- 37
2018-08-26 12:00:00 23.2 6 Nordeste 17 Sudeste 0 -- -- 44
2018-08-26 11:00:00 19.1 10 Este 15 Este 0 -- -- 53
2018-08-26 10:00:00 15.9 12 Este 17 Este 0 -- -- 64
2018-08-26 09:00:00 11.3 6 Este 10 Este 0 -- -- 82
2018-08-26 08:00:00 8.2 5 Este 8 Nordeste 0 -- -- 90
2018-08-26 07:00:00 7.7 6 Este 9 Este 0 -- -- 92
2018-08-26 06:00:00 8.8 4 Este 8 Este 0 -- -- 88
2018-08-26 05:00:00 9.7 4 Este 8 Nordeste 0 -- -- 85
2018-08-26 04:00:00 11.2 3 Este 11 Este 0 -- -- 81
2018-08-26 03:00:00 12.1 8 Este 13 Este 0 -- -- 79
2018-08-26 02:00:00 12.9 6 Este 17 Sudeste 0 -- -- 75
2018-08-26 01:00:00 14.5 10 Sudeste 16 Sudeste 0 -- -- 69
2018-08-26 00:00:00 16 12 Este 17 Este 0 -- -- 62
2018-08-25 23:00:00 17.5 8 Sudeste 12 Sudeste 0 -- -- 56
2018-08-25 22:00:00 18.7 12 Oeste 18 Oeste 0 -- -- 43
2018-08-25 21:00:00 21 14 Oeste 28 Noroeste 0 -- -- 33
2018-08-25 20:00:00 24.1 19 Noroeste 28 Noroeste 0 -- -- 26
2018-08-25 19:00:00 25.4 19 Noroeste 31 Noroeste 0 -- -- 27
2018-08-25 18:00:00 26.2 19 Noroeste 35 Oeste 0 -- -- 28
2018-08-25 17:00:00 26.2 20 Oeste 33 Noroeste 0 -- -- 31
2018-08-25 16:00:00 26.3 18 Oeste 34 Oeste 0 -- -- 29
2018-08-25 15:00:00 25.4 12 Noroeste 31 Oeste 0 -- -- 33
2018-08-25 14:00:00 24.6 14 Oeste 24 Oeste 0 -- -- 35
2018-08-25 13:00:00 24.2 7 Oeste 15 Oeste 0 -- -- 40
2018-08-25 12:00:00 22 4 Sur 12 Sudeste 0 -- -- 47
2018-08-25 11:00:00 18.7 5 Este 12 Este 0 -- -- 55
2018-08-25 10:00:00 14.9 7 Este 14 Este 0 -- -- 71
2018-08-25 09:00:00 11.1 5 Este 8 Este 0 -- -- 85
2018-08-25 08:00:00 8.5 5 Nordeste 12 Este 0 -- -- 93
2018-08-25 07:00:00 8.2 3 Este 6 Nordeste 0 -- -- 92
2018-08-25 06:00:00 9.1 4 Este 8 Este 0 -- -- 91
2018-08-25 05:00:00 10.7 4 Sudeste 6 Nordeste 0 -- -- 86
2018-08-25 04:00:00 11.9 4 Este 12 Este 0 -- -- 83
2018-08-25 03:00:00 12.8 7 Este 12 Este 0 -- -- 81
2018-08-25 02:00:00 13.9 5 Este 18 Este 0 -- -- 76
2018-08-25 01:00:00 15.2 6 Este 13 Este 0 -- -- 72
2018-08-25 00:00:00 16.4 6 Este 16 Sudeste 0 -- -- 68
2018-08-24 23:00:00 17.9 7 Este 16 Este 0 -- -- 61
2018-08-24 22:00:00 19.9 9 Noroeste 19 Noroeste 0 -- -- 47
2018-08-24 21:00:00 21.8 16 Noroeste 30 Noroeste 0 -- -- 38
2018-08-24 20:00:00 23.4 20 Oeste 35 Oeste 0 -- -- 36
2018-08-24 19:00:00 25.4 23 Oeste 37 Noroeste 0 -- -- 30
2018-08-24 18:00:00 26.4 22 Noroeste 37 Noroeste 0 -- -- 30
2018-08-24 17:00:00 27.2 23 Oeste 38 Noroeste 0 -- -- 29
2018-08-24 16:00:00 27.3 21 Noroeste 36 Noroeste 0 -- -- 28
2018-08-24 15:00:00 26.4 20 Noroeste 33 Noroeste 0 -- -- 28
2018-08-24 14:00:00 25.7 12 Noroeste 26 Oeste 0 -- -- 30
2018-08-24 13:00:00 25.2 8 Oeste 15 Oeste 0 -- -- 35
2018-08-24 12:00:00 23.3 6 Oeste 13 Oeste 0 -- -- 43
2018-08-24 11:00:00 21.1 3 Norte 8 Sudeste 0 -- -- 56
2018-08-24 10:00:00 17.6 5 Este 8 Este 0 -- -- 70
2018-08-24 09:00:00 13.2 5 Este 10 Este 0 -- -- 81
2018-08-24 08:00:00 10.2 4 Sudeste 6 Sudeste 0 -- -- 91
2018-08-24 07:00:00 10.7 4 Sudeste 8 Nordeste 0 -- -- 91
2018-08-24 06:00:00 12.3 2 Este 9 Nordeste 0 -- -- 88
2018-08-24 05:00:00 13 3 Nordeste 9 Nordeste 0 -- -- 87
2018-08-24 04:00:00 14.2 3 Este 9 Nordeste 0 -- -- 85
2018-08-24 03:00:00 15.3 4 Este 10 Nordeste 0 -- -- 81
2018-08-24 02:00:00 16.6 7 Nordeste 12 Este 0 -- -- 76
2018-08-24 01:00:00 18.2 7 Este 15 Este 0 -- -- 72
2018-08-24 00:00:00 19.4 10 Este 22 Este 0 -- -- 67